Terminal Aerodrome Forecast
Issued by NWS Sterling, VA

Home | Current Version | Previous Version | Text Only | Print | Product List | Glossary On
Versions: 1 2 3 4 5 6 7 8 9 10 11 12 13 14 15 16 17 18 19 20 21 22 23 24 25
000
FTUS41 KLWX 160539
TAFDCA
TAF
KDCA 160539Z 1606/1712 24007KT P6SM SCT060
     FM161100 22006KT P6SM SCT120
     FM161700 22010G18KT P6SM SCT090
     FM162200 23008KT P6SM FEW120
     FM170200 23004KT P6SM FEW250=

USA.gov is the U.S. government's official web portal to all federal, state and local government web resources and services.